sensor_id;sensor_type;location;lat;lon;timestamp;temperature;humidity
7360;DHT22;3720;48.274;7.796;2022-07-05T00:02:30;18.70;99.90
7360;DHT22;3720;48.274;7.796;2022-07-05T00:05:02;18.60;99.90
7360;DHT22;3720;48.274;7.796;2022-07-05T00:07:34;18.60;99.90
7360;DHT22;3720;48.274;7.796;2022-07-05T00:10:07;18.60;99.90
7360;DHT22;3720;48.274;7.796;2022-07-05T00:12:39;18.70;99.90
7360;DHT22;3720;48.274;7.796;2022-07-05T00:15:13;18.70;99.90
7360;DHT22;3720;48.274;7.796;2022-07-05T00:17:45;18.70;99.90
7360;DHT22;3720;48.274;7.796;2022-07-05T00:20:17;18.60;99.90
7360;DHT22;3720;48.274;7.796;2022-07-05T00:22:49;18.70;99.90
7360;DHT22;3720;48.274;7.796;2022-07-05T00:25:21;18.60;99.90
7360;DHT22;3720;48.274;7.796;2022-07-05T00:27:53;18.50;99.90
7360;DHT22;3720;48.274;7.796;2022-07-05T00:30:26;18.50;99.90
7360;DHT22;3720;48.274;7.796;2022-07-05T00:32:58;18.40;99.90
7360;DHT22;3720;48.274;7.796;2022-07-05T00:35:30;18.30;99.90
7360;DHT22;3720;48.274;7.796;2022-07-05T00:38:02;18.20;99.90
7360;DHT22;3720;48.274;7.796;2022-07-05T00:40:34;18.20;99.90
7360;DHT22;3720;48.274;7.796;2022-07-05T00:43:06;18.20;99.90
7360;DHT22;3720;48.274;7.796;2022-07-05T00:45:40;18.20;99.90
7360;DHT22;3720;48.274;7.796;2022-07-05T00:48:12;18.10;99.90
7360;DHT22;3720;48.274;7.796;2022-07-05T00:50:44;18.20;99.90
7360;DHT22;3720;48.274;7.796;2022-07-05T00:53:16;18.10;99.90
7360;DHT22;3720;48.274;7.796;2022-07-05T00:55:48;18.20;99.90
7360;DHT22;3720;48.274;7.796;2022-07-05T00:58:20;18.10;99.90
7360;DHT22;3720;48.274;7.796;2022-07-05T01:00:53;18.10;99.90
7360;DHT22;3720;48.274;7.796;2022-07-05T01:03:25;18.10;99.90
7360;DHT22;3720;48.274;7.796;2022-07-05T01:05:58;18.00;99.90
7360;DHT22;3720;48.274;7.796;2022-07-05T01:08:30;18.10;99.90
7360;DHT22;3720;48.274;7.796;2022-07-05T01:11:04;18.00;99.90
7360;DHT22;3720;48.274;7.796;2022-07-05T01:13:37;17.90;99.90
7360;DHT22;3720;48.274;7.796;2022-07-05T01:16:10;18.00;99.90
7360;DHT22;3720;48.274;7.796;2022-07-05T01:18:43;17.90;99.90
7360;DHT22;3720;48.274;7.796;2022-07-05T01:21:17;17.90;99.90
7360;DHT22;3720;48.274;7.796;2022-07-05T01:23:54;17.90;99.90
7360;DHT22;3720;48.274;7.796;2022-07-05T01:26:26;17.90;99.90
7360;DHT22;3720;48.274;7.796;2022-07-05T01:28:58;17.70;99.90
7360;DHT22;3720;48.274;7.796;2022-07-05T01:31:30;17.60;99.90
7360;DHT22;3720;48.274;7.796;2022-07-05T01:34:03;17.60;99.90
7360;DHT22;3720;48.274;7.796;2022-07-05T01:36:36;17.60;99.90
7360;DHT22;3720;48.274;7.796;2022-07-05T01:39:09;17.60;99.90
7360;DHT22;3720;48.274;7.796;2022-07-05T01:41:41;17.60;99.90
7360;DHT22;3720;48.274;7.796;2022-07-05T01:44:13;17.60;99.90
7360;DHT22;3720;48.274;7.796;2022-07-05T01:46:45;17.50;99.90
7360;DHT22;3720;48.274;7.796;2022-07-05T01:49:18;17.40;99.90
7360;DHT22;3720;48.274;7.796;2022-07-05T01:51:55;17.40;99.90
7360;DHT22;3720;48.274;7.796;2022-07-05T01:54:30;17.30;99.90
7360;DHT22;3720;48.274;7.796;2022-07-05T01:57:04;17.30;99.90
7360;DHT22;3720;48.274;7.796;2022-07-05T01:59:37;17.40;99.90
7360;DHT22;3720;48.274;7.796;2022-07-05T02:02:09;17.40;99.90
7360;DHT22;3720;48.274;7.796;2022-07-05T02:04:41;17.40;99.90
7360;DHT22;3720;48.274;7.796;2022-07-05T02:07:13;17.40;99.90
7360;DHT22;3720;48.274;7.796;2022-07-05T02:09:46;17.40;99.90
7360;DHT22;3720;48.274;7.796;2022-07-05T02:12:18;17.40;99.90
7360;DHT22;3720;48.274;7.796;2022-07-05T02:14:51;17.40;99.90
7360;DHT22;3720;48.274;7.796;2022-07-05T02:17:23;17.30;99.90
7360;DHT22;3720;48.274;7.796;2022-07-05T02:19:54;17.30;99.90
7360;DHT22;3720;48.274;7.796;2022-07-05T02:22:26;17.20;99.90
7360;DHT22;3720;48.274;7.796;2022-07-05T02:25:00;17.20;99.90
7360;DHT22;3720;48.274;7.796;2022-07-05T02:27:32;17.10;99.90
7360;DHT22;3720;48.274;7.796;2022-07-05T02:30:04;17.10;99.90
7360;DHT22;3720;48.274;7.796;2022-07-05T02:32:37;17.00;99.90
7360;DHT22;3720;48.274;7.796;2022-07-05T02:35:10;17.00;99.90
7360;DHT22;3720;48.274;7.796;2022-07-05T02:37:42;17.10;99.90
7360;DHT22;3720;48.274;7.796;2022-07-05T02:40:16;17.00;99.90
7360;DHT22;3720;48.274;7.796;2022-07-05T02:42:48;17.00;99.90
7360;DHT22;3720;48.274;7.796;2022-07-05T02:45:20;17.00;99.90
7360;DHT22;3720;48.274;7.796;2022-07-05T02:47:52;17.00;99.90
7360;DHT22;3720;48.274;7.796;2022-07-05T02:50:24;17.10;99.90
7360;DHT22;3720;48.274;7.796;2022-07-05T02:52:56;17.10;99.90
7360;DHT22;3720;48.274;7.796;2022-07-05T02:55:29;17.10;99.90
7360;DHT22;3720;48.274;7.796;2022-07-05T02:58:01;17.00;99.90
7360;DHT22;3720;48.274;7.796;2022-07-05T03:00:33;16.90;99.90
7360;DHT22;3720;48.274;7.796;2022-07-05T03:03:05;16.90;99.90
7360;DHT22;3720;48.274;7.796;2022-07-05T03:05:38;16.90;99.90
7360;DHT22;3720;48.274;7.796;2022-07-05T03:08:10;16.80;99.90
7360;DHT22;3720;48.274;7.796;2022-07-05T03:10:43;16.80;99.90
7360;DHT22;3720;48.274;7.796;2022-07-05T03:13:15;16.80;99.90
7360;DHT22;3720;48.274;7.796;2022-07-05T03:15:47;16.80;99.90
7360;DHT22;3720;48.274;7.796;2022-07-05T03:18:19;16.70;99.90
7360;DHT22;3720;48.274;7.796;2022-07-05T03:20:51;16.70;99.90
7360;DHT22;3720;48.274;7.796;2022-07-05T03:23:23;16.70;99.90
7360;DHT22;3720;48.274;7.796;2022-07-05T03:25:56;16.70;99.90
7360;DHT22;3720;48.274;7.796;2022-07-05T03:28:29;16.60;99.90
7360;DHT22;3720;48.274;7.796;2022-07-05T03:31:01;16.60;99.90
7360;DHT22;3720;48.274;7.796;2022-07-05T03:33:33;16.60;99.90
7360;DHT22;3720;48.274;7.796;2022-07-05T03:36:06;16.50;99.90
7360;DHT22;3720;48.274;7.796;2022-07-05T03:38:38;16.60;99.90
7360;DHT22;3720;48.274;7.796;2022-07-05T03:41:11;16.50;99.90
7360;DHT22;3720;48.274;7.796;2022-07-05T03:43:43;16.50;99.90
7360;DHT22;3720;48.274;7.796;2022-07-05T03:46:15;16.50;99.90
7360;DHT22;3720;48.274;7.796;2022-07-05T03:48:47;16.50;99.90
7360;DHT22;3720;48.274;7.796;2022-07-05T03:51:19;16.50;99.90
7360;DHT22;3720;48.274;7.796;2022-07-05T03:53:51;16.40;99.90
7360;DHT22;3720;48.274;7.796;2022-07-05T03:56:25;16.40;99.90
7360;DHT22;3720;48.274;7.796;2022-07-05T03:58:56;16.50;99.90
7360;DHT22;3720;48.274;7.796;2022-07-05T04:01:29;16.60;99.90
7360;DHT22;3720;48.274;7.796;2022-07-05T04:04:01;16.70;99.90
7360;DHT22;3720;48.274;7.796;2022-07-05T04:06:33;16.70;99.90
7360;DHT22;3720;48.274;7.796;2022-07-05T04:09:05;16.70;99.90
7360;DHT22;3720;48.274;7.796;2022-07-05T04:11:39;16.60;99.90
7360;DHT22;3720;48.274;7.796;2022-07-05T04:14:10;16.50;99.90
7360;DHT22;3720;48.274;7.796;2022-07-05T04:16:42;16.50;99.90
7360;DHT22;3720;48.274;7.796;2022-07-05T04:19:14;16.40;99.90
7360;DHT22;3720;48.274;7.796;2022-07-05T04:21:46;16.30;99.90
7360;DHT22;3720;48.274;7.796;2022-07-05T04:24:18;16.40;99.90
7360;DHT22;3720;48.274;7.796;2022-07-05T04:26:51;16.40;99.90
7360;DHT22;3720;48.274;7.796;2022-07-05T04:29:23;16.40;99.90
7360;DHT22;3720;48.274;7.796;2022-07-05T04:31:55;16.40;99.90
7360;DHT22;3720;48.274;7.796;2022-07-05T04:34:27;16.30;99.90
7360;DHT22;3720;48.274;7.796;2022-07-05T04:36:59;16.30;99.90
7360;DHT22;3720;48.274;7.796;2022-07-05T04:39:31;16.20;99.90
7360;DHT22;3720;48.274;7.796;2022-07-05T04:42:05;16.10;99.90
7360;DHT22;3720;48.274;7.796;2022-07-05T04:44:37;16.20;99.90
7360;DHT22;3720;48.274;7.796;2022-07-05T04:47:09;16.20;99.90
7360;DHT22;3720;48.274;7.796;2022-07-05T04:49:41;16.20;99.90
7360;DHT22;3720;48.274;7.796;2022-07-05T04:52:13;16.20;99.90
7360;DHT22;3720;48.274;7.796;2022-07-05T04:54:45;16.20;99.90
7360;DHT22;3720;48.274;7.796;2022-07-05T04:57:19;16.20;99.90
7360;DHT22;3720;48.274;7.796;2022-07-05T04:59:51;16.30;99.90
7360;DHT22;3720;48.274;7.796;2022-07-05T05:02:22;16.30;99.90
7360;DHT22;3720;48.274;7.796;2022-07-05T05:04:55;16.40;99.90
7360;DHT22;3720;48.274;7.796;2022-07-05T05:07:27;16.40;99.90
7360;DHT22;3720;48.274;7.796;2022-07-05T05:09:59;16.60;99.90
7360;DHT22;3720;48.274;7.796;2022-07-05T05:12:32;17.10;99.90
7360;DHT22;3720;48.274;7.796;2022-07-05T05:15:05;17.30;99.90
7360;DHT22;3720;48.274;7.796;2022-07-05T05:17:40;17.40;99.90
7360;DHT22;3720;48.274;7.796;2022-07-05T05:20:13;17.40;99.90
7360;DHT22;3720;48.274;7.796;2022-07-05T05:22:46;17.30;99.90
7360;DHT22;3720;48.274;7.796;2022-07-05T05:25:18;17.30;99.90
7360;DHT22;3720;48.274;7.796;2022-07-05T05:27:52;17.40;99.90
7360;DHT22;3720;48.274;7.796;2022-07-05T05:30:24;17.40;99.90
7360;DHT22;3720;48.274;7.796;2022-07-05T05:32:55;17.40;99.90
7360;DHT22;3720;48.274;7.796;2022-07-05T05:35:28;17.50;99.90
7360;DHT22;3720;48.274;7.796;2022-07-05T05:38:01;17.60;99.90
7360;DHT22;3720;48.274;7.796;2022-07-05T05:40:33;17.70;99.90
7360;DHT22;3720;48.274;7.796;2022-07-05T05:43:06;17.80;99.90
7360;DHT22;3720;48.274;7.796;2022-07-05T05:45:38;17.80;99.90
7360;DHT22;3720;48.274;7.796;2022-07-05T05:48:10;17.80;99.90
7360;DHT22;3720;48.274;7.796;2022-07-05T05:50:42;17.90;99.90
7360;DHT22;3720;48.274;7.796;2022-07-05T05:53:14;17.80;99.90
7360;DHT22;3720;48.274;7.796;2022-07-05T05:55:46;17.80;99.90
7360;DHT22;3720;48.274;7.796;2022-07-05T05:58:21;17.90;99.90
7360;DHT22;3720;48.274;7.796;2022-07-05T06:00:54;17.90;99.90
7360;DHT22;3720;48.274;7.796;2022-07-05T06:03:26;18.00;99.90
7360;DHT22;3720;48.274;7.796;2022-07-05T06:05:58;18.00;99.90
7360;DHT22;3720;48.274;7.796;2022-07-05T06:08:31;18.10;99.90
7360;DHT22;3720;48.274;7.796;2022-07-05T06:11:03;18.20;99.90
7360;DHT22;3720;48.274;7.796;2022-07-05T06:13:37;18.30;99.90
7360;DHT22;3720;48.274;7.796;2022-07-05T06:16:09;18.30;99.90
7360;DHT22;3720;48.274;7.796;2022-07-05T06:18:41;18.40;99.90
7360;DHT22;3720;48.274;7.796;2022-07-05T06:21:13;18.50;99.90
7360;DHT22;3720;48.274;7.796;2022-07-05T06:23:45;18.60;99.90
7360;DHT22;3720;48.274;7.796;2022-07-05T06:26:17;18.70;99.90
7360;DHT22;3720;48.274;7.796;2022-07-05T06:28:50;18.80;99.90
7360;DHT22;3720;48.274;7.796;2022-07-05T06:31:22;18.90;99.90
7360;DHT22;3720;48.274;7.796;2022-07-05T06:33:54;19.00;99.90
7360;DHT22;3720;48.274;7.796;2022-07-05T06:36:26;19.10;99.90
7360;DHT22;3720;48.274;7.796;2022-07-05T06:38:59;19.10;99.90
7360;DHT22;3720;48.274;7.796;2022-07-05T06:41:30;19.20;99.90
7360;DHT22;3720;48.274;7.796;2022-07-05T06:44:04;19.30;99.90
7360;DHT22;3720;48.274;7.796;2022-07-05T06:46:36;19.40;99.90
7360;DHT22;3720;48.274;7.796;2022-07-05T06:49:08;19.50;99.90
7360;DHT22;3720;48.274;7.796;2022-07-05T06:51:40;19.60;99.90
7360;DHT22;3720;48.274;7.796;2022-07-05T06:54:12;19.70;99.90
7360;DHT22;3720;48.274;7.796;2022-07-05T06:56:44;19.80;99.90
7360;DHT22;3720;48.274;7.796;2022-07-05T06:59:18;19.90;99.90
7360;DHT22;3720;48.274;7.796;2022-07-05T07:01:51;20.00;99.90
7360;DHT22;3720;48.274;7.796;2022-07-05T07:04:24;20.10;99.90
7360;DHT22;3720;48.274;7.796;2022-07-05T07:06:56;20.20;99.90
7360;DHT22;3720;48.274;7.796;2022-07-05T07:09:28;20.30;99.90
7360;DHT22;3720;48.274;7.796;2022-07-05T07:11:59;20.40;99.90
7360;DHT22;3720;48.274;7.796;2022-07-05T07:14:32;20.60;99.90
7360;DHT22;3720;48.274;7.796;2022-07-05T07:17:05;20.70;99.90
7360;DHT22;3720;48.274;7.796;2022-07-05T07:19:37;20.90;99.90
7360;DHT22;3720;48.274;7.796;2022-07-05T07:22:09;20.90;99.90
7360;DHT22;3720;48.274;7.796;2022-07-05T07:24:42;21.00;99.90
7360;DHT22;3720;48.274;7.796;2022-07-05T07:27:14;21.10;99.90
7360;DHT22;3720;48.274;7.796;2022-07-05T07:29:47;21.20;99.90
7360;DHT22;3720;48.274;7.796;2022-07-05T07:32:19;21.30;99.90
7360;DHT22;3720;48.274;7.796;2022-07-05T07:34:51;21.30;99.90
7360;DHT22;3720;48.274;7.796;2022-07-05T07:37:23;21.50;99.90
7360;DHT22;3720;48.274;7.796;2022-07-05T07:39:55;21.60;99.90
7360;DHT22;3720;48.274;7.796;2022-07-05T07:42:27;21.60;99.90
7360;DHT22;3720;48.274;7.796;2022-07-05T07:45:01;21.70;99.90
7360;DHT22;3720;48.274;7.796;2022-07-05T07:47:35;21.80;99.90
7360;DHT22;3720;48.274;7.796;2022-07-05T07:50:08;22.00;99.90
7360;DHT22;3720;48.274;7.796;2022-07-05T07:52:39;22.10;99.90
7360;DHT22;3720;48.274;7.796;2022-07-05T07:55:11;22.10;99.90
7360;DHT22;3720;48.274;7.796;2022-07-05T07:57:44;22.20;99.90
7360;DHT22;3720;48.274;7.796;2022-07-05T08:00:17;22.40;99.90
7360;DHT22;3720;48.274;7.796;2022-07-05T08:02:50;22.50;99.90
7360;DHT22;3720;48.274;7.796;2022-07-05T08:05:21;22.60;99.90
7360;DHT22;3720;48.274;7.796;2022-07-05T08:07:54;22.70;99.90
7360;DHT22;3720;48.274;7.796;2022-07-05T08:10:26;22.70;99.90
7360;DHT22;3720;48.274;7.796;2022-07-05T08:12:58;22.80;99.90
7360;DHT22;3720;48.274;7.796;2022-07-05T08:15:31;22.90;99.90
7360;DHT22;3720;48.274;7.796;2022-07-05T08:18:03;23.00;99.90
7360;DHT22;3720;48.274;7.796;2022-07-05T08:20:53;23.20;99.90
7360;DHT22;3720;48.274;7.796;2022-07-05T08:23:42;23.30;99.90
7360;DHT22;3720;48.274;7.796;2022-07-05T08:26:14;23.40;99.90
7360;DHT22;3720;48.274;7.796;2022-07-05T08:28:46;23.30;99.90
7360;DHT22;3720;48.274;7.796;2022-07-05T08:31:21;23.50;99.90
7360;DHT22;3720;48.274;7.796;2022-07-05T08:33:52;23.70;99.90
7360;DHT22;3720;48.274;7.796;2022-07-05T08:36:25;23.80;99.90
7360;DHT22;3720;48.274;7.796;2022-07-05T08:38:57;23.90;99.90
7360;DHT22;3720;48.274;7.796;2022-07-05T08:41:30;24.00;99.90
7360;DHT22;3720;48.274;7.796;2022-07-05T08:44:04;24.10;99.90
7360;DHT22;3720;48.274;7.796;2022-07-05T08:46:39;24.30;99.90
7360;DHT22;3720;48.274;7.796;2022-07-05T08:49:13;24.40;99.90
7360;DHT22;3720;48.274;7.796;2022-07-05T08:51:46;24.40;99.90
7360;DHT22;3720;48.274;7.796;2022-07-05T08:54:18;24.50;99.90
7360;DHT22;3720;48.274;7.796;2022-07-05T08:56:51;24.60;99.90
7360;DHT22;3720;48.274;7.796;2022-07-05T08:59:23;24.70;99.90
7360;DHT22;3720;48.274;7.796;2022-07-05T09:01:57;24.80;99.90
7360;DHT22;3720;48.274;7.796;2022-07-05T09:04:31;24.90;99.90
7360;DHT22;3720;48.274;7.796;2022-07-05T09:07:04;24.90;99.90
7360;DHT22;3720;48.274;7.796;2022-07-05T09:09:38;25.00;99.90
7360;DHT22;3720;48.274;7.796;2022-07-05T09:12:13;25.00;99.90
7360;DHT22;3720;48.274;7.796;2022-07-05T09:14:46;25.10;99.90
7360;DHT22;3720;48.274;7.796;2022-07-05T09:17:19;25.20;99.90
7360;DHT22;3720;48.274;7.796;2022-07-05T09:20:04;25.40;99.90
7360;DHT22;3720;48.274;7.796;2022-07-05T09:22:46;25.50;99.90
7360;DHT22;3720;48.274;7.796;2022-07-05T09:25:20;25.70;99.90
7360;DHT22;3720;48.274;7.796;2022-07-05T09:27:55;25.80;99.90
7360;DHT22;3720;48.274;7.796;2022-07-05T09:30:30;25.90;99.90
7360;DHT22;3720;48.274;7.796;2022-07-05T09:33:05;26.00;99.90
7360;DHT22;3720;48.274;7.796;2022-07-05T09:35:39;26.10;99.90
7360;DHT22;3720;48.274;7.796;2022-07-05T09:38:18;26.10;99.90
7360;DHT22;3720;48.274;7.796;2022-07-05T09:40:52;26.10;99.90
7360;DHT22;3720;48.274;7.796;2022-07-05T09:43:25;26.10;99.90
7360;DHT22;3720;48.274;7.796;2022-07-05T09:45:59;26.30;99.90
7360;DHT22;3720;48.274;7.796;2022-07-05T09:48:33;26.40;99.90
7360;DHT22;3720;48.274;7.796;2022-07-05T09:51:07;26.40;99.90
7360;DHT22;3720;48.274;7.796;2022-07-05T09:53:47;26.50;99.90
7360;DHT22;3720;48.274;7.796;2022-07-05T09:56:19;26.60;99.90
7360;DHT22;3720;48.274;7.796;2022-07-05T09:58:52;26.70;99.90
7360;DHT22;3720;48.274;7.796;2022-07-05T10:01:25;26.80;99.90
7360;DHT22;3720;48.274;7.796;2022-07-05T10:04:00;26.80;99.90
7360;DHT22;3720;48.274;7.796;2022-07-05T10:06:33;27.00;99.90
7360;DHT22;3720;48.274;7.796;2022-07-05T10:09:05;27.10;99.90
7360;DHT22;3720;48.274;7.796;2022-07-05T10:11:40;27.20;99.90
7360;DHT22;3720;48.274;7.796;2022-07-05T10:14:19;27.30;99.90
7360;DHT22;3720;48.274;7.796;2022-07-05T10:16:59;27.50;99.90
7360;DHT22;3720;48.274;7.796;2022-07-05T10:19:38;27.60;99.90
7360;DHT22;3720;48.274;7.796;2022-07-05T10:22:12;27.70;99.90
7360;DHT22;3720;48.274;7.796;2022-07-05T10:24:45;27.80;99.90
7360;DHT22;3720;48.274;7.796;2022-07-05T10:27:18;27.90;99.90
7360;DHT22;3720;48.274;7.796;2022-07-05T10:29:50;28.00;99.90
7360;DHT22;3720;48.274;7.796;2022-07-05T10:32:23;28.00;99.90
7360;DHT22;3720;48.274;7.796;2022-07-05T10:34:59;28.00;99.90
7360;DHT22;3720;48.274;7.796;2022-07-05T10:37:34;28.10;99.90
7360;DHT22;3720;48.274;7.796;2022-07-05T10:40:07;28.10;99.90
7360;DHT22;3720;48.274;7.796;2022-07-05T10:42:41;28.20;99.20
7360;DHT22;3720;48.274;7.796;2022-07-05T10:45:23;28.20;99.00
7360;DHT22;3720;48.274;7.796;2022-07-05T10:48:14;28.30;99.90
7360;DHT22;3720;48.274;7.796;2022-07-05T10:50:50;28.50;99.60
7360;DHT22;3720;48.274;7.796;2022-07-05T10:53:24;28.70;98.50
7360;DHT22;3720;48.274;7.796;2022-07-05T10:55:58;28.80;98.00
7360;DHT22;3720;48.274;7.796;2022-07-05T10:58:31;29.00;97.00
7360;DHT22;3720;48.274;7.796;2022-07-05T11:01:32;29.00;96.50
7360;DHT22;3720;48.274;7.796;2022-07-05T11:04:25;29.20;95.70
7360;DHT22;3720;48.274;7.796;2022-07-05T11:07:02;29.40;96.40
7360;DHT22;3720;48.274;7.796;2022-07-05T11:09:34;29.50;96.10
7360;DHT22;3720;48.274;7.796;2022-07-05T11:12:08;29.60;94.40
7360;DHT22;3720;48.274;7.796;2022-07-05T11:14:45;29.70;94.90
7360;DHT22;3720;48.274;7.796;2022-07-05T11:17:19;29.90;93.50
7360;DHT22;3720;48.274;7.796;2022-07-05T11:20:12;29.90;94.00
7360;DHT22;3720;48.274;7.796;2022-07-05T11:23:04;30.00;92.40
7360;DHT22;3720;48.274;7.796;2022-07-05T11:25:39;30.10;92.40
7360;DHT22;3720;48.274;7.796;2022-07-05T11:28:19;30.20;89.80
7360;DHT22;3720;48.274;7.796;2022-07-05T11:30:57;30.20;89.10
7360;DHT22;3720;48.274;7.796;2022-07-05T11:33:40;30.10;87.80
7360;DHT22;3720;48.274;7.796;2022-07-05T11:36:21;30.10;87.90
7360;DHT22;3720;48.274;7.796;2022-07-05T11:39:13;30.20;90.20
7360;DHT22;3720;48.274;7.796;2022-07-05T11:41:47;30.30;92.00
7360;DHT22;3720;48.274;7.796;2022-07-05T11:44:20;30.60;90.70
7360;DHT22;3720;48.274;7.796;2022-07-05T11:46:54;30.70;90.20
7360;DHT22;3720;48.274;7.796;2022-07-05T11:49:26;30.90;86.30
7360;DHT22;3720;48.274;7.796;2022-07-05T11:52:00;31.10;87.30
7360;DHT22;3720;48.274;7.796;2022-07-05T11:54:34;31.20;83.80
7360;DHT22;3720;48.274;7.796;2022-07-05T11:57:08;31.40;82.90
7360;DHT22;3720;48.274;7.796;2022-07-05T11:59:42;31.50;82.50
7360;DHT22;3720;48.274;7.796;2022-07-05T12:02:13;31.50;82.10
7360;DHT22;3720;48.274;7.796;2022-07-05T12:04:47;31.60;82.70
7360;DHT22;3720;48.274;7.796;2022-07-05T12:07:26;31.80;80.40
7360;DHT22;3720;48.274;7.796;2022-07-05T12:10:00;31.90;78.20
7360;DHT22;3720;48.274;7.796;2022-07-05T12:12:50;32.00;77.20
7360;DHT22;3720;48.274;7.796;2022-07-05T12:15:23;32.10;75.00
7360;DHT22;3720;48.274;7.796;2022-07-05T12:18:00;32.20;74.80
7360;DHT22;3720;48.274;7.796;2022-07-05T12:20:36;32.20;75.40
7360;DHT22;3720;48.274;7.796;2022-07-05T12:23:08;32.30;71.30
7360;DHT22;3720;48.274;7.796;2022-07-05T12:25:41;32.30;73.40
7360;DHT22;3720;48.274;7.796;2022-07-05T12:28:13;32.30;73.00
7360;DHT22;3720;48.274;7.796;2022-07-05T12:30:45;32.30;77.40
7360;DHT22;3720;48.274;7.796;2022-07-05T12:33:20;32.30;73.90
7360;DHT22;3720;48.274;7.796;2022-07-05T12:35:52;32.30;69.10
7360;DHT22;3720;48.274;7.796;2022-07-05T12:38:29;32.40;72.60
7360;DHT22;3720;48.274;7.796;2022-07-05T12:41:02;32.50;70.60
7360;DHT22;3720;48.274;7.796;2022-07-05T12:43:48;32.60;70.80
7360;DHT22;3720;48.274;7.796;2022-07-05T12:46:34;32.80;70.00
7360;DHT22;3720;48.274;7.796;2022-07-05T12:49:07;33.00;70.20
7360;DHT22;3720;48.274;7.796;2022-07-05T12:51:42;33.10;67.40
7360;DHT22;3720;48.274;7.796;2022-07-05T12:54:19;33.10;67.00
7360;DHT22;3720;48.274;7.796;2022-07-05T12:57:14;33.20;62.30
7360;DHT22;3720;48.274;7.796;2022-07-05T13:00:05;32.90;66.60
7360;DHT22;3720;48.274;7.796;2022-07-05T13:02:39;33.00;67.60
7360;DHT22;3720;48.274;7.796;2022-07-05T13:05:19;33.10;65.20
7360;DHT22;3720;48.274;7.796;2022-07-05T13:07:52;33.10;64.50
7360;DHT22;3720;48.274;7.796;2022-07-05T13:10:26;33.20;63.30
7360;DHT22;3720;48.274;7.796;2022-07-05T13:13:03;33.20;62.00
7360;DHT22;3720;48.274;7.796;2022-07-05T13:15:36;33.20;64.80
7360;DHT22;3720;48.274;7.796;2022-07-05T13:18:08;33.40;64.60
7360;DHT22;3720;48.274;7.796;2022-07-05T13:20:41;33.50;67.00
7360;DHT22;3720;48.274;7.796;2022-07-05T13:23:13;33.60;66.30
7360;DHT22;3720;48.274;7.796;2022-07-05T13:25:45;33.80;65.20
7360;DHT22;3720;48.274;7.796;2022-07-05T13:28:18;34.00;64.30
7360;DHT22;3720;48.274;7.796;2022-07-05T13:30:50;34.10;60.40
7360;DHT22;3720;48.274;7.796;2022-07-05T13:33:22;34.20;61.70
7360;DHT22;3720;48.274;7.796;2022-07-05T13:35:54;34.30;60.40
7360;DHT22;3720;48.274;7.796;2022-07-05T13:38:26;34.30;59.60
7360;DHT22;3720;48.274;7.796;2022-07-05T13:40:58;34.30;58.90
7360;DHT22;3720;48.274;7.796;2022-07-05T13:43:32;34.30;57.50
7360;DHT22;3720;48.274;7.796;2022-07-05T13:46:04;34.10;58.00
7360;DHT22;3720;48.274;7.796;2022-07-05T13:48:35;34.10;58.60
7360;DHT22;3720;48.274;7.796;2022-07-05T13:51:07;34.10;59.60
7360;DHT22;3720;48.274;7.796;2022-07-05T13:53:39;34.20;59.60
7360;DHT22;3720;48.274;7.796;2022-07-05T13:56:11;34.20;59.60
7360;DHT22;3720;48.274;7.796;2022-07-05T13:58:45;34.10;58.40
7360;DHT22;3720;48.274;7.796;2022-07-05T14:01:17;34.10;59.40
7360;DHT22;3720;48.274;7.796;2022-07-05T14:03:51;34.10;58.30
7360;DHT22;3720;48.274;7.796;2022-07-05T14:06:23;34.20;57.90
7360;DHT22;3720;48.274;7.796;2022-07-05T14:08:55;34.00;54.10
7360;DHT22;3720;48.274;7.796;2022-07-05T14:11:28;34.00;56.40
7360;DHT22;3720;48.274;7.796;2022-07-05T14:14:02;34.10;58.60
7360;DHT22;3720;48.274;7.796;2022-07-05T14:16:34;34.20;55.50
7360;DHT22;3720;48.274;7.796;2022-07-05T14:19:06;34.20;56.40
7360;DHT22;3720;48.274;7.796;2022-07-05T14:21:38;34.30;55.20
7360;DHT22;3720;48.274;7.796;2022-07-05T14:24:11;34.30;55.00
7360;DHT22;3720;48.274;7.796;2022-07-05T14:26:43;34.10;56.90
7360;DHT22;3720;48.274;7.796;2022-07-05T14:29:17;33.90;54.60
7360;DHT22;3720;48.274;7.796;2022-07-05T14:31:48;33.80;55.30
7360;DHT22;3720;48.274;7.796;2022-07-05T14:34:21;33.70;54.90
7360;DHT22;3720;48.274;7.796;2022-07-05T14:36:53;33.60;57.10
7360;DHT22;3720;48.274;7.796;2022-07-05T14:39:25;33.70;58.00
7360;DHT22;3720;48.274;7.796;2022-07-05T14:41:57;33.80;56.60
7360;DHT22;3720;48.274;7.796;2022-07-05T14:44:31;34.00;54.50
7360;DHT22;3720;48.274;7.796;2022-07-05T14:47:03;34.00;54.50
7360;DHT22;3720;48.274;7.796;2022-07-05T14:49:35;33.90;56.10
7360;DHT22;3720;48.274;7.796;2022-07-05T14:52:07;34.00;57.20
7360;DHT22;3720;48.274;7.796;2022-07-05T14:54:39;34.10;57.40
7360;DHT22;3720;48.274;7.796;2022-07-05T14:57:11;34.20;56.60
7360;DHT22;3720;48.274;7.796;2022-07-05T14:59:44;34.30;55.80
7360;DHT22;3720;48.274;7.796;2022-07-05T15:02:16;34.30;56.60
7360;DHT22;3720;48.274;7.796;2022-07-05T15:04:48;34.30;56.40
7360;DHT22;3720;48.274;7.796;2022-07-05T15:07:21;34.40;56.90
7360;DHT22;3720;48.274;7.796;2022-07-05T15:09:52;34.30;56.00
7360;DHT22;3720;48.274;7.796;2022-07-05T15:12:25;34.20;57.80
7360;DHT22;3720;48.274;7.796;2022-07-05T15:14:58;34.20;59.00
7360;DHT22;3720;48.274;7.796;2022-07-05T15:17:30;34.30;54.80
7360;DHT22;3720;48.274;7.796;2022-07-05T15:20:04;34.20;54.90
7360;DHT22;3720;48.274;7.796;2022-07-05T15:22:36;34.10;56.10
7360;DHT22;3720;48.274;7.796;2022-07-05T15:25:09;34.00;57.10
7360;DHT22;3720;48.274;7.796;2022-07-05T15:27:41;34.20;55.30
7360;DHT22;3720;48.274;7.796;2022-07-05T15:30:15;34.00;56.30
7360;DHT22;3720;48.274;7.796;2022-07-05T15:32:48;34.10;56.10
7360;DHT22;3720;48.274;7.796;2022-07-05T15:35:20;34.00;54.10
7360;DHT22;3720;48.274;7.796;2022-07-05T15:37:52;34.00;55.70
7360;DHT22;3720;48.274;7.796;2022-07-05T15:40:24;33.90;56.30
7360;DHT22;3720;48.274;7.796;2022-07-05T15:42:56;33.80;55.90
7360;DHT22;3720;48.274;7.796;2022-07-05T15:45:30;33.80;56.50
7360;DHT22;3720;48.274;7.796;2022-07-05T15:48:03;33.80;54.70
7360;DHT22;3720;48.274;7.796;2022-07-05T15:50:35;33.80;54.10
7360;DHT22;3720;48.274;7.796;2022-07-05T15:53:07;34.00;54.20
7360;DHT22;3720;48.274;7.796;2022-07-05T15:55:39;34.00;54.70
7360;DHT22;3720;48.274;7.796;2022-07-05T15:58:11;34.00;53.40
7360;DHT22;3720;48.274;7.796;2022-07-05T16:00:45;33.90;53.70
7360;DHT22;3720;48.274;7.796;2022-07-05T16:03:17;33.90;54.40
7360;DHT22;3720;48.274;7.796;2022-07-05T16:05:49;33.90;53.90
7360;DHT22;3720;48.274;7.796;2022-07-05T16:08:21;34.00;54.00
7360;DHT22;3720;48.274;7.796;2022-07-05T16:10:53;34.10;52.40
7360;DHT22;3720;48.274;7.796;2022-07-05T16:13:25;34.10;52.50
7360;DHT22;3720;48.274;7.796;2022-07-05T16:15:59;34.10;52.90
7360;DHT22;3720;48.274;7.796;2022-07-05T16:18:45;34.20;51.90
7360;DHT22;3720;48.274;7.796;2022-07-05T16:21:18;34.20;52.00
7360;DHT22;3720;48.274;7.796;2022-07-05T16:23:50;34.30;51.60
7360;DHT22;3720;48.274;7.796;2022-07-05T16:26:22;34.20;50.40
7360;DHT22;3720;48.274;7.796;2022-07-05T16:28:55;34.30;50.70
7360;DHT22;3720;48.274;7.796;2022-07-05T16:31:29;34.40;52.00
7360;DHT22;3720;48.274;7.796;2022-07-05T16:34:00;34.40;51.60
7360;DHT22;3720;48.274;7.796;2022-07-05T16:36:33;34.30;51.70
7360;DHT22;3720;48.274;7.796;2022-07-05T16:39:06;34.40;50.80
7360;DHT22;3720;48.274;7.796;2022-07-05T16:41:38;34.30;51.30
7360;DHT22;3720;48.274;7.796;2022-07-05T16:44:10;34.30;50.90